createdAt,value
2018-12-07T00:02:13.153Z,5.43
2018-12-07T00:04:40.641Z,3.10
2018-12-07T00:07:08.185Z,6.30
2018-12-07T00:09:35.674Z,4.27
2018-12-07T00:12:03.121Z,4.50
2018-12-07T00:14:30.671Z,3.30
2018-12-07T00:16:58.147Z,5.67
2018-12-07T00:19:25.592Z,5.17
2018-12-07T00:21:53.160Z,5.50
2018-12-07T00:24:20.611Z,5.23
2018-12-07T00:26:48.111Z,4.93
2018-12-07T00:29:15.582Z,5.30
2018-12-07T00:31:43.288Z,3.43
2018-12-07T00:34:10.775Z,6.00
2018-12-07T00:36:38.269Z,5.27
2018-12-07T00:39:07.151Z,5.17
2018-12-07T00:41:34.642Z,4.70
2018-12-07T00:44:02.268Z,4.00
2018-12-07T00:46:29.727Z,4.13
2018-12-07T00:48:57.228Z,5.33
2018-12-07T00:51:24.706Z,3.67
2018-12-07T00:53:52.176Z,3.90
2018-12-07T00:56:19.647Z,6.30
2018-12-07T00:58:47.094Z,4.97
2018-12-07T01:01:14.583Z,5.07
2018-12-07T01:03:42.033Z,3.83
2018-12-07T01:06:09.574Z,3.40
2018-12-07T01:08:37.027Z,3.43
2018-12-07T01:11:04.539Z,5.20
2018-12-07T01:13:32.013Z,4.63
2018-12-07T01:15:59.527Z,5.90
2018-12-07T01:18:26.992Z,4.90
2018-12-07T01:20:54.442Z,5.57
2018-12-07T01:23:21.926Z,4.33
2018-12-07T01:25:49.379Z,6.30
2018-12-07T01:28:16.858Z,5.10
2018-12-07T01:30:44.349Z,3.90
2018-12-07T01:33:11.881Z,4.33
2018-12-07T01:35:39.338Z,5.70
2018-12-07T01:38:06.811Z,4.87
2018-12-07T01:40:34.286Z,3.40
2018-12-07T01:43:01.754Z,3.90
2018-12-07T01:45:29.279Z,3.93
2018-12-07T01:47:56.893Z,4.43
2018-12-07T01:50:24.595Z,5.57
2018-12-07T01:52:52.042Z,5.57
2018-12-07T01:55:19.518Z,4.20
2018-12-07T01:57:47.002Z,5.00
2018-12-07T02:00:14.468Z,4.80
2018-12-07T02:02:41.992Z,5.60
2018-12-07T02:05:09.503Z,3.07
2018-12-07T02:07:36.966Z,4.93
2018-12-07T02:10:05.046Z,5.40
2018-12-07T02:12:32.583Z,4.63
2018-12-07T02:15:00.034Z,5.27
2018-12-07T02:17:27.487Z,7.17
2018-12-07T02:19:54.959Z,6.63
2018-12-07T02:22:22.433Z,5.87
2018-12-07T02:24:50.827Z,4.73
2018-12-07T02:27:18.295Z,6.23
2018-12-07T02:29:45.826Z,6.27
2018-12-07T02:32:13.267Z,7.63
2018-12-07T02:34:40.726Z,7.30
2018-12-07T02:37:08.197Z,5.57
2018-12-07T02:39:35.641Z,6.30
2018-12-07T02:42:03.327Z,7.10
2018-12-07T02:44:30.783Z,7.87
2018-12-07T02:46:58.237Z,5.47
2018-12-07T02:49:25.713Z,3.83
2018-12-07T02:51:53.191Z,6.80
2018-12-07T02:54:20.742Z,6.93
2018-12-07T02:56:48.200Z,6.80
2018-12-07T02:59:15.670Z,6.97
2018-12-07T03:01:43.123Z,6.63
2018-12-07T03:04:10.599Z,6.30
2018-12-07T03:06:38.082Z,5.97
2018-12-07T03:09:06.061Z,6.93
2018-12-07T03:11:33.572Z,7.37
2018-12-07T03:14:01.063Z,9.10
2018-12-07T03:16:28.519Z,7.37
2018-12-07T03:18:55.990Z,3.97
2018-12-07T03:21:23.443Z,4.97
2018-12-07T03:23:50.922Z,5.13
2018-12-07T03:26:18.422Z,4.30
2018-12-07T03:28:45.871Z,5.90
2018-12-07T03:31:13.346Z,5.30
2018-12-07T03:33:40.924Z,6.23
2018-12-07T03:36:08.505Z,5.27
2018-12-07T03:38:35.996Z,5.50
2018-12-07T03:41:03.648Z,6.63
2018-12-07T03:43:31.129Z,6.43
2018-12-07T03:45:58.706Z,5.37
2018-12-07T03:48:26.160Z,5.33
2018-12-07T03:50:53.635Z,5.30
2018-12-07T03:53:21.111Z,4.07
2018-12-07T03:55:48.577Z,5.23
2018-12-07T03:58:16.027Z,3.30
2018-12-07T04:00:43.500Z,3.93
2018-12-07T04:03:10.946Z,4.57
2018-12-07T04:05:38.432Z,3.60
2018-12-07T04:08:06.078Z,3.70
2018-12-07T04:10:33.553Z,3.70
2018-12-07T04:13:01.020Z,3.33
2018-12-07T04:15:28.531Z,3.93
2018-12-07T04:17:55.998Z,3.20
2018-12-07T04:20:23.466Z,2.80
2018-12-07T04:22:50.918Z,3.83
2018-12-07T04:25:18.390Z,3.87
2018-12-07T04:27:45.845Z,3.00
2018-12-07T04:30:22.646Z,2.60
2018-12-07T04:32:50.187Z,3.50
2018-12-07T04:35:17.723Z,3.60
2018-12-07T04:37:45.250Z,2.80
2018-12-07T04:40:12.714Z,3.87
2018-12-07T04:42:40.190Z,3.83
2018-12-07T04:45:07.842Z,2.80
2018-12-07T04:47:35.316Z,3.13
2018-12-07T04:50:02.871Z,3.30
2018-12-07T04:52:31.226Z,2.40
2018-12-07T04:54:58.704Z,3.20
2018-12-07T04:57:26.287Z,2.47
2018-12-07T04:59:53.743Z,2.27
2018-12-07T05:02:21.239Z,2.43
2018-12-07T05:04:48.804Z,2.57
2018-12-07T05:07:16.247Z,3.10
2018-12-07T05:09:43.765Z,2.50
2018-12-07T05:12:11.206Z,2.90
2018-12-07T05:14:38.716Z,3.13
2018-12-07T05:17:06.201Z,2.00
2018-12-07T05:19:33.657Z,1.90
2018-12-07T05:22:01.156Z,2.80
2018-12-07T05:24:28.670Z,2.47
2018-12-07T05:26:56.123Z,0.93
2018-12-07T05:29:23.611Z,1.70
2018-12-07T05:31:51.063Z,2.27
2018-12-07T05:34:18.523Z,1.40
2018-12-07T05:36:46.070Z,1.53
2018-12-07T05:39:13.687Z,1.73
2018-12-07T05:41:41.127Z,1.63
2018-12-07T05:44:08.599Z,2.00
2018-12-07T05:46:36.058Z,1.77
2018-12-07T05:49:03.587Z,1.70
2018-12-07T05:51:31.073Z,1.20
2018-12-07T05:53:58.644Z,2.00
2018-12-07T05:56:26.130Z,2.20
2018-12-07T05:58:53.739Z,1.90
2018-12-07T06:01:21.191Z,2.50
2018-12-07T06:03:48.663Z,2.40
2018-12-07T06:06:16.131Z,1.50
2018-12-07T06:08:43.590Z,1.20
2018-12-07T06:11:11.063Z,1.20
2018-12-07T06:13:38.534Z,1.90
2018-12-07T06:16:06.008Z,1.23
2018-12-07T06:18:33.498Z,2.23
2018-12-07T06:21:00.988Z,1.90
2018-12-07T06:23:28.457Z,1.97
2018-12-07T06:25:55.903Z,1.60
2018-12-07T06:28:23.408Z,2.13
2018-12-07T06:30:50.888Z,1.63
2018-12-07T06:33:18.377Z,1.37
2018-12-07T06:35:46.015Z,1.60
2018-12-07T06:38:13.481Z,1.13
2018-12-07T06:40:40.950Z,1.50
2018-12-07T06:43:08.410Z,2.03
2018-12-07T06:45:35.890Z,1.90
2018-12-07T06:48:03.453Z,1.67
2018-12-07T06:50:30.982Z,1.73
2018-12-07T06:52:58.427Z,2.00
2018-12-07T06:55:25.897Z,1.93
2018-12-07T06:57:53.368Z,2.00
2018-12-07T07:00:20.833Z,1.57
2018-12-07T07:02:48.328Z,2.27
2018-12-07T07:05:15.771Z,2.03
2018-12-07T07:07:43.230Z,1.40
2018-12-07T07:10:10.699Z,1.23
2018-12-07T07:12:38.177Z,1.60
2018-12-07T07:15:05.863Z,1.40
2018-12-07T07:17:33.428Z,3.27
2018-12-07T07:20:00.886Z,1.70
2018-12-07T07:22:28.331Z,2.20
2018-12-07T07:24:55.810Z,2.30
2018-12-07T07:27:23.258Z,2.60
2018-12-07T07:29:50.786Z,2.20
2018-12-07T07:32:18.259Z,2.17
2018-12-07T07:34:45.730Z,2.47
2018-12-07T07:37:13.170Z,2.00
2018-12-07T07:39:40.642Z,1.83
2018-12-07T07:42:08.098Z,2.87
2018-12-07T07:44:35.570Z,2.67
2018-12-07T07:47:03.090Z,2.60
2018-12-07T07:49:30.670Z,1.73
2018-12-07T07:51:58.145Z,1.77
2018-12-07T07:54:25.599Z,1.90
2018-12-07T07:56:53.097Z,1.60
2018-12-07T07:59:20.540Z,2.10
2018-12-07T08:01:48.002Z,1.67
2018-12-07T08:04:15.484Z,1.10
2018-12-07T08:06:42.976Z,1.00
2018-12-07T08:09:11.027Z,0.77
2018-12-07T08:11:38.602Z,1.80
2018-12-07T08:14:06.200Z,1.77
2018-12-07T08:16:33.682Z,2.30
2018-12-07T08:19:01.215Z,1.20
2018-12-07T08:21:28.687Z,1.77
2018-12-07T08:23:56.134Z,1.87
2018-12-07T08:26:23.583Z,1.93
2018-12-07T08:28:51.078Z,3.17
2018-12-07T08:31:18.538Z,1.97
2018-12-07T08:33:46.115Z,2.60
2018-12-07T08:36:13.586Z,1.90
2018-12-07T08:38:41.105Z,2.37
2018-12-07T08:41:08.553Z,2.67
2018-12-07T08:43:36.029Z,3.50
2018-12-07T08:46:03.481Z,3.00
2018-12-07T08:48:30.946Z,3.47
2018-12-07T08:50:58.390Z,2.67
2018-12-07T08:53:25.858Z,3.27
2018-12-07T08:55:53.506Z,1.97
2018-12-07T08:58:21.020Z,2.70
2018-12-07T09:00:48.490Z,3.30
2018-12-07T09:03:15.990Z,1.80
2018-12-07T09:05:43.468Z,2.40
2018-12-07T09:08:15.205Z,2.00
2018-12-07T09:10:40.443Z,3.13
2018-12-07T09:13:07.941Z,2.00
2018-12-07T09:15:35.405Z,2.30
2018-12-07T09:18:02.855Z,2.17
2018-12-07T09:20:30.336Z,3.20
2018-12-07T09:22:57.785Z,3.37
2018-12-07T09:25:25.322Z,2.83
2018-12-07T09:27:52.799Z,2.57
2018-12-07T09:30:20.246Z,2.50
2018-12-07T09:32:47.714Z,3.17
2018-12-07T09:35:15.222Z,3.53
2018-12-07T09:37:42.706Z,3.10
2018-12-07T09:40:10.221Z,3.70
2018-12-07T09:42:37.683Z,3.07
2018-12-07T09:45:06.258Z,2.70
2018-12-07T09:47:33.751Z,3.30
2018-12-07T09:50:01.201Z,2.07
2018-12-07T09:52:29.143Z,2.43
2018-12-07T09:54:56.770Z,3.40
2018-12-07T09:57:24.218Z,3.97
2018-12-07T09:59:51.746Z,3.00
2018-12-07T10:02:19.204Z,3.47
2018-12-07T10:04:46.695Z,2.07
2018-12-07T10:07:14.162Z,3.80
2018-12-07T10:09:41.635Z,3.60
2018-12-07T10:12:09.144Z,2.50
2018-12-07T10:14:36.591Z,2.30
2018-12-07T10:17:04.111Z,2.27
2018-12-07T10:19:31.588Z,3.17
2018-12-07T10:21:59.042Z,2.83
2018-12-07T10:24:26.520Z,2.70
2018-12-07T10:26:53.987Z,2.60
2018-12-07T10:29:21.469Z,2.07
2018-12-07T10:31:48.915Z,1.97
2018-12-07T10:34:16.405Z,3.03
2018-12-07T10:36:43.850Z,1.90
2018-12-07T10:39:11.304Z,1.83
2018-12-07T10:41:38.760Z,1.90
2018-12-07T10:44:06.241Z,1.90
2018-12-07T10:46:33.736Z,3.07
2018-12-07T10:49:01.331Z,2.27
2018-12-07T10:51:28.794Z,2.37
2018-12-07T10:53:56.338Z,1.50
2018-12-07T10:56:23.807Z,1.30
2018-12-07T10:58:51.321Z,1.53
2018-12-07T11:01:24.547Z,1.97
2018-12-07T11:03:57.752Z,1.53
2018-12-07T11:06:30.995Z,2.47
2018-12-07T11:09:03.095Z,1.87
2018-12-07T11:11:36.176Z,1.40
2018-12-07T11:14:09.387Z,1.33
2018-12-07T11:16:42.589Z,1.43
2018-12-07T11:19:15.759Z,1.80
2018-12-07T11:21:55.815Z,1.47
2018-12-07T11:24:29.186Z,1.87
2018-12-07T11:27:02.250Z,1.97
2018-12-07T11:29:35.414Z,2.10
2018-12-07T11:32:08.438Z,1.43
2018-12-07T11:34:36.718Z,2.03
2018-12-07T11:37:04.161Z,1.20
2018-12-07T11:39:31.632Z,1.43
2018-12-07T11:41:59.105Z,1.30
2018-12-07T11:44:26.553Z,1.27
2018-12-07T11:46:54.109Z,1.27
2018-12-07T11:49:23.539Z,1.10
2018-12-07T11:51:51.006Z,1.10
2018-12-07T11:54:18.450Z,1.20
2018-12-07T11:56:45.914Z,1.10
2018-12-07T11:59:13.369Z,1.07
2018-12-07T12:01:44.635Z,1.20
2018-12-07T12:04:10.338Z,1.10
2018-12-07T12:06:37.823Z,1.37
2018-12-07T12:09:06.978Z,1.20
2018-12-07T12:11:34.807Z,1.07
2018-12-07T12:14:02.498Z,1.10
2018-12-07T12:16:29.967Z,1.30
2018-12-07T12:18:57.452Z,1.17
2018-12-07T12:21:24.934Z,1.30
2018-12-07T12:23:53.768Z,0.97
2018-12-07T12:26:21.582Z,1.40
2018-12-07T12:28:49.038Z,1.17
2018-12-07T12:31:16.510Z,0.80
2018-12-07T12:33:44.078Z,1.13
2018-12-07T12:36:16.984Z,1.30
2018-12-07T12:38:41.063Z,7.00
2018-12-07T12:41:08.519Z,3.37
2018-12-07T12:43:35.967Z,2.27
2018-12-07T12:46:03.529Z,0.70
2018-12-07T12:48:31.002Z,1.47
2018-12-07T12:50:58.798Z,7.23
2018-12-07T12:53:26.314Z,5.00
2018-12-07T12:55:53.866Z,1.03
2018-12-07T12:58:21.384Z,0.90
2018-12-07T13:00:48.899Z,1.00
2018-12-07T13:03:16.396Z,0.90
2018-12-07T13:05:43.855Z,1.33
2018-12-07T13:08:11.407Z,1.00
2018-12-07T13:10:38.918Z,0.73
2018-12-07T13:13:06.459Z,0.93
2018-12-07T13:15:33.903Z,1.00
2018-12-07T13:18:01.350Z,1.10
2018-12-07T13:20:28.824Z,0.80
2018-12-07T13:22:56.266Z,0.83
2018-12-07T13:25:23.730Z,1.80
2018-12-07T13:27:51.198Z,0.80
2018-12-07T13:30:18.697Z,0.97
2018-12-07T13:32:46.165Z,1.00
2018-12-07T13:35:13.670Z,0.90
2018-12-07T13:37:41.160Z,0.60
2018-12-07T13:40:08.745Z,0.70
2018-12-07T13:42:36.423Z,1.00
2018-12-07T13:45:05.242Z,0.70
2018-12-07T13:47:32.875Z,0.60
2018-12-07T13:50:06.267Z,0.60
2018-12-07T13:52:33.895Z,0.90
2018-12-07T13:55:01.705Z,0.80
2018-12-07T13:57:29.532Z,0.70
2018-12-07T13:59:57.074Z,0.70
2018-12-07T14:02:24.599Z,0.80
2018-12-07T14:04:52.224Z,0.77
2018-12-07T14:07:19.850Z,0.67
2018-12-07T14:09:47.553Z,0.80
2018-12-07T14:12:15.238Z,1.07
2018-12-07T14:14:42.938Z,0.90
2018-12-07T14:17:10.697Z,0.70
2018-12-07T14:19:38.325Z,1.00
2018-12-07T14:22:05.887Z,0.90
2018-12-07T14:24:33.539Z,1.00
2018-12-07T14:27:01.204Z,1.80
2018-12-07T14:29:29.758Z,1.20
2018-12-07T14:31:57.869Z,1.20
2018-12-07T14:34:25.404Z,0.77
2018-12-07T14:36:53.131Z,1.60
2018-12-07T14:39:20.759Z,0.80
2018-12-07T14:41:48.610Z,1.03
2018-12-07T14:44:17.641Z,0.97
2018-12-07T14:46:45.711Z,2.23
2018-12-07T14:49:13.499Z,1.53
2018-12-07T14:51:41.328Z,1.80
2018-12-07T14:54:08.914Z,1.53
2018-12-07T14:56:36.519Z,1.63
2018-12-07T14:59:04.317Z,1.27
2018-12-07T15:01:32.209Z,1.50
2018-12-07T15:04:00.052Z,1.23
2018-12-07T15:06:27.851Z,1.60
2018-12-07T15:08:55.399Z,1.27
2018-12-07T15:11:23.089Z,1.63
2018-12-07T15:13:52.157Z,1.03
2018-12-07T15:16:19.910Z,1.30
2018-12-07T15:18:47.685Z,1.70
2018-12-07T15:21:15.438Z,1.40
2018-12-07T15:23:42.928Z,1.87
2018-12-07T15:26:10.717Z,1.50
2018-12-07T15:28:38.443Z,2.40
2018-12-07T15:31:06.338Z,1.43
2018-12-07T15:33:34.173Z,1.70
2018-12-07T15:36:01.904Z,1.43
2018-12-07T15:38:29.721Z,1.50
2018-12-07T15:40:57.346Z,0.90
2018-12-07T15:43:24.879Z,1.33
2018-12-07T15:45:52.524Z,1.27
2018-12-07T15:48:20.128Z,1.10
2018-12-07T15:50:47.760Z,1.13
2018-12-07T15:53:15.476Z,1.60
2018-12-07T15:55:43.128Z,1.43
2018-12-07T15:58:10.692Z,1.30
2018-12-07T16:00:38.452Z,1.30
2018-12-07T16:03:05.994Z,1.10
2018-12-07T16:05:33.623Z,1.20
2018-12-07T16:08:01.199Z,1.33
2018-12-07T16:10:28.920Z,1.70
2018-12-07T16:12:56.458Z,1.80
2018-12-07T16:15:24.040Z,1.53
2018-12-07T16:17:51.651Z,1.57
2018-12-07T16:20:19.170Z,1.70
2018-12-07T16:22:46.915Z,1.53
2018-12-07T16:25:14.684Z,1.40
2018-12-07T16:27:42.389Z,1.67
2018-12-07T16:30:09.970Z,2.67
2018-12-07T16:32:37.701Z,1.20
2018-12-07T16:35:05.651Z,1.13
2018-12-07T16:37:33.332Z,1.43
2018-12-07T16:40:00.804Z,1.70
2018-12-07T16:42:28.444Z,2.10
2018-12-07T16:44:55.973Z,1.53
2018-12-07T16:47:23.487Z,0.87
2018-12-07T16:49:50.976Z,1.70
2018-12-07T16:52:18.774Z,1.03
2018-12-07T16:54:46.818Z,1.87
2018-12-07T16:57:14.488Z,0.70
2018-12-07T16:59:42.333Z,0.80
2018-12-07T17:02:10.024Z,0.60
2018-12-07T17:04:37.789Z,0.70
2018-12-07T17:07:05.437Z,1.03
2018-12-07T17:09:33.169Z,0.80
2018-12-07T17:12:00.688Z,0.60
2018-12-07T17:14:28.463Z,1.13
2018-12-07T17:16:56.002Z,0.90
2018-12-07T17:19:23.557Z,1.20
2018-12-07T17:21:51.419Z,0.80
2018-12-07T17:24:19.203Z,1.03
2018-12-07T17:26:46.934Z,1.50
2018-12-07T17:29:14.565Z,1.50
2018-12-07T17:31:42.198Z,1.30
2018-12-07T17:34:10.734Z,1.03
2018-12-07T17:36:38.453Z,1.20
2018-12-07T17:39:06.780Z,0.80
2018-12-07T17:41:34.411Z,0.60
2018-12-07T17:44:02.135Z,0.77
2018-12-07T17:46:30.011Z,0.60
2018-12-07T17:48:57.731Z,1.07
2018-12-07T17:51:25.693Z,0.97
2018-12-07T17:53:53.245Z,0.80
2018-12-07T17:56:20.742Z,0.93
2018-12-07T17:58:48.600Z,0.63
2018-12-07T18:01:16.345Z,2.37
2018-12-07T18:03:43.885Z,1.57
2018-12-07T18:06:11.471Z,1.20
2018-12-07T18:08:39.243Z,1.30
2018-12-07T18:11:07.218Z,0.50
2018-12-07T18:13:34.891Z,1.03
2018-12-07T18:16:02.423Z,0.63
2018-12-07T18:18:30.039Z,1.33
2018-12-07T18:20:57.810Z,6.00
2018-12-07T18:23:25.724Z,6.43
2018-12-07T18:25:53.322Z,5.37
2018-12-07T18:28:21.032Z,1.83
2018-12-07T18:30:48.915Z,2.03
2018-12-07T18:33:16.743Z,2.00
2018-12-07T18:35:44.333Z,2.50
2018-12-07T18:38:12.098Z,2.37
2018-12-07T18:40:39.780Z,1.10
2018-12-07T18:43:07.293Z,1.00
2018-12-07T18:45:35.008Z,1.10
2018-12-07T18:48:02.979Z,1.90
2018-12-07T18:50:30.690Z,1.83
2018-12-07T18:52:58.296Z,1.33
2018-12-07T18:55:25.972Z,1.23
2018-12-07T18:57:53.541Z,1.20
2018-12-07T19:00:21.370Z,0.80
2018-12-07T19:02:49.246Z,1.10
2018-12-07T19:05:16.989Z,1.03
2018-12-07T19:07:44.891Z,1.80
2018-12-07T19:10:12.627Z,1.93
2018-12-07T19:12:40.458Z,1.80
2018-12-07T19:15:08.272Z,1.90
2018-12-07T19:17:35.924Z,1.00
2018-12-07T19:20:04.699Z,0.93
2018-12-07T19:22:32.586Z,1.70
2018-12-07T19:25:00.082Z,2.10
2018-12-07T19:27:27.785Z,0.97
2018-12-07T19:29:55.359Z,1.30
2018-12-07T19:32:22.830Z,2.33
2018-12-07T19:34:50.586Z,1.23
2018-12-07T19:37:18.194Z,1.63
2018-12-07T19:39:45.692Z,2.87
2018-12-07T19:42:13.223Z,1.37
2018-12-07T19:44:40.841Z,2.87
2018-12-07T19:47:09.051Z,0.97
2018-12-07T19:49:36.734Z,1.77
2018-12-07T19:52:04.695Z,2.00
2018-12-07T19:54:32.209Z,2.90
2018-12-07T19:56:59.658Z,1.60
2018-12-07T19:59:27.402Z,1.33
2018-12-07T20:01:55.100Z,1.97
2018-12-07T20:04:22.845Z,0.80
2018-12-07T20:06:50.550Z,1.83
2018-12-07T20:09:18.197Z,2.00
2018-12-07T20:11:46.038Z,1.60
2018-12-07T20:14:14.005Z,2.03
2018-12-07T20:16:42.323Z,1.40
2018-12-07T20:19:10.623Z,1.40
2018-12-07T20:21:38.095Z,1.80
2018-12-07T20:24:05.803Z,1.90
2018-12-07T20:26:33.732Z,1.60
2018-12-07T20:29:01.680Z,1.73
2018-12-07T20:31:30.041Z,0.90
2018-12-07T20:33:57.949Z,1.50
2018-12-07T20:36:25.681Z,2.17
2018-12-07T20:38:53.535Z,1.90
2018-12-07T20:41:21.702Z,3.53
2018-12-07T20:43:49.285Z,2.03
2018-12-07T20:46:17.225Z,2.20
2018-12-07T20:48:44.866Z,2.53
2018-12-07T20:51:12.386Z,1.70
2018-12-07T20:53:40.019Z,2.77
2018-12-07T20:56:07.618Z,2.13
2018-12-07T20:58:35.395Z,2.93
2018-12-07T21:01:03.313Z,1.50
2018-12-07T21:03:38.103Z,2.40
2018-12-07T21:09:27.081Z,1.47
2018-12-07T21:11:58.602Z,2.13
2018-12-07T21:14:26.589Z,1.07
2018-12-07T21:17:04.649Z,1.60
2018-12-07T21:19:33.590Z,1.90
2018-12-07T21:22:01.393Z,0.80
2018-12-07T21:24:29.184Z,1.90
2018-12-07T21:26:57.140Z,1.90
2018-12-07T21:29:24.856Z,1.00
2018-12-07T21:31:55.954Z,1.80
2018-12-07T21:34:28.257Z,2.90
2018-12-07T21:36:55.785Z,1.83
2018-12-07T21:39:24.513Z,1.70
2018-12-07T21:41:52.444Z,1.70
2018-12-07T21:44:20.254Z,1.47
2018-12-07T21:46:48.058Z,2.20
2018-12-07T21:49:15.935Z,1.93
2018-12-07T21:51:47.709Z,1.57
2018-12-07T21:54:15.505Z,1.50
2018-12-07T21:56:43.272Z,1.27
2018-12-07T21:59:11.007Z,1.20
2018-12-07T22:01:38.952Z,1.07
2018-12-07T22:04:06.490Z,0.80
2018-12-07T22:06:34.017Z,1.80
2018-12-07T22:09:02.209Z,1.47
2018-12-07T22:11:29.923Z,1.67
2018-12-07T22:13:57.458Z,1.57
2018-12-07T22:16:24.897Z,1.07
2018-12-07T22:18:52.628Z,2.57
2018-12-07T22:21:20.458Z,1.70
2018-12-07T22:23:48.156Z,1.43
2018-12-07T22:26:15.806Z,1.80
2018-12-07T22:28:43.500Z,1.97
2018-12-07T22:31:11.087Z,2.10
2018-12-07T22:33:38.851Z,1.93
2018-12-07T22:36:06.546Z,3.13
2018-12-07T22:38:34.348Z,1.47
2018-12-07T22:41:01.954Z,2.23
2018-12-07T22:43:29.483Z,1.03
2018-12-07T22:45:56.958Z,1.10
2018-12-07T22:48:24.411Z,2.07
2018-12-07T22:50:51.946Z,2.10
2018-12-07T22:53:19.415Z,2.63
2018-12-07T22:55:46.907Z,4.53
2018-12-07T22:58:14.474Z,2.40
2018-12-07T23:00:43.306Z,1.20
2018-12-07T23:03:10.857Z,2.20
2018-12-07T23:05:38.334Z,2.00
2018-12-07T23:08:05.805Z,1.63
2018-12-07T23:10:33.266Z,1.30
2018-12-07T23:13:00.740Z,2.30
2018-12-07T23:15:28.210Z,2.43
2018-12-07T23:17:55.666Z,1.47
2018-12-07T23:20:23.199Z,1.60
2018-12-07T23:22:50.644Z,1.60
2018-12-07T23:25:18.090Z,3.03
2018-12-07T23:27:45.559Z,1.47
2018-12-07T23:30:12.994Z,2.10
2018-12-07T23:32:40.472Z,1.60
2018-12-07T23:35:08.014Z,2.10
2018-12-07T23:37:35.562Z,2.43
2018-12-07T23:40:03.539Z,2.27
2018-12-07T23:42:30.986Z,2.73
2018-12-07T23:44:58.454Z,2.20
2018-12-07T23:47:25.897Z,3.37
2018-12-07T23:49:53.371Z,1.83
2018-12-07T23:52:20.837Z,1.20
2018-12-07T23:54:48.359Z,1.03
2018-12-07T23:57:15.809Z,0.80
2018-12-07T23:59:43.297Z,0.93
